createdAt,value
2023-05-22T00:00:29.369Z,36.00
2023-05-22T00:01:32.279Z,36.50
2023-05-22T00:02:38.676Z,33.25
2023-05-22T00:03:41.645Z,32.50
2023-05-22T00:04:47.393Z,29.50
2023-05-22T00:05:48.901Z,33.25
2023-05-22T00:06:51.385Z,33.00
2023-05-22T00:07:52.823Z,34.50
2023-05-22T00:08:55.273Z,30.50
2023-05-22T00:09:56.729Z,33.50
2023-05-22T00:10:59.201Z,28.50
2023-05-22T00:12:00.710Z,30.00
2023-05-22T00:13:03.151Z,32.75
2023-05-22T00:14:04.665Z,29.50
2023-05-22T00:15:07.718Z,30.00
2023-05-22T00:16:09.284Z,31.25
2023-05-22T00:17:15.044Z,31.00
2023-05-22T00:18:27.003Z,34.25
2023-05-22T00:19:30.966Z,32.00
2023-05-22T00:20:32.531Z,33.25
2023-05-22T00:21:37.506Z,34.75
2023-05-22T00:22:38.984Z,32.25
2023-05-22T00:23:41.469Z,31.25
2023-05-22T00:24:42.979Z,33.50
2023-05-22T00:25:45.417Z,35.75
2023-05-22T00:26:46.858Z,33.00
2023-05-22T00:27:49.530Z,32.50
2023-05-22T00:28:51.013Z,35.00
2023-05-22T00:29:53.450Z,32.25
2023-05-22T00:30:54.926Z,33.25
2023-05-22T00:31:57.372Z,34.00
2023-05-22T00:32:58.860Z,31.75
2023-05-22T00:34:01.393Z,30.75
2023-05-22T00:35:04.561Z,28.75
2023-05-22T00:36:07.282Z,31.75
2023-05-22T00:37:08.756Z,36.75
2023-05-22T00:38:11.227Z,30.75
2023-05-22T00:39:12.958Z,32.25
2023-05-22T00:40:15.634Z,32.25
2023-05-22T00:41:17.093Z,32.00
2023-05-22T00:42:19.539Z,36.25
2023-05-22T00:43:21.494Z,36.75
2023-05-22T00:44:24.245Z,37.00
2023-05-22T00:45:25.691Z,35.25
2023-05-22T00:46:28.153Z,39.50
2023-05-22T00:47:29.928Z,41.75
2023-05-22T00:48:32.479Z,44.25
2023-05-22T00:49:33.963Z,37.75
2023-05-22T00:50:37.872Z,38.75
2023-05-22T00:51:39.698Z,39.50
2023-05-22T00:52:42.585Z,38.00
2023-05-22T00:53:44.301Z,45.75
2023-05-22T00:54:46.750Z,39.75
2023-05-22T00:55:48.204Z,38.25
2023-05-22T00:56:50.650Z,40.75
2023-05-22T00:57:52.157Z,41.75
2023-05-22T00:58:55.088Z,46.00
2023-05-22T00:59:56.564Z,43.00
2023-05-22T01:00:59.481Z,36.75
2023-05-22T01:02:01.554Z,39.75
2023-05-22T01:03:04.534Z,40.75
2023-05-22T01:04:07.987Z,36.75
2023-05-22T01:05:13.306Z,39.50
2023-05-22T01:06:18.227Z,40.50
2023-05-22T01:07:23.418Z,36.75
2023-05-22T01:08:24.947Z,40.00
2023-05-22T01:09:27.374Z,42.25
2023-05-22T01:10:28.840Z,35.75
2023-05-22T01:11:33.014Z,36.75
2023-05-22T01:12:36.458Z,34.50
2023-05-22T01:13:41.064Z,38.25
2023-05-22T01:14:44.102Z,37.75
2023-05-22T01:15:48.657Z,41.50
2023-05-22T01:16:51.561Z,37.75
2023-05-22T01:17:57.638Z,35.00
2023-05-22T01:19:01.208Z,37.25
2023-05-22T01:20:07.504Z,33.25
2023-05-22T01:21:10.313Z,40.25
2023-05-22T01:22:21.414Z,42.75
2023-05-22T01:23:36.171Z,32.00
2023-05-22T01:24:52.861Z,40.25
2023-05-22T01:25:57.278Z,37.75
2023-05-22T01:27:17.300Z,37.75
2023-05-22T01:28:23.721Z,39.00
2023-05-22T01:29:37.539Z,35.75
2023-05-22T01:30:45.353Z,35.25
2023-05-22T01:31:47.825Z,44.00
2023-05-22T01:32:49.424Z,36.25
2023-05-22T01:33:52.612Z,34.00
2023-05-22T01:34:59.458Z,37.50
2023-05-22T01:36:01.864Z,35.75
2023-05-22T01:37:03.352Z,36.75
2023-05-22T01:38:05.876Z,39.50
2023-05-22T01:39:07.650Z,35.75
2023-05-22T01:40:10.362Z,35.75
2023-05-22T01:41:11.811Z,36.25
2023-05-22T01:42:14.447Z,46.25
2023-05-22T01:43:15.958Z,37.25
2023-05-22T01:44:18.403Z,38.75
2023-05-22T01:45:20.976Z,42.00
2023-05-22T01:46:27.438Z,39.00
2023-05-22T01:47:28.979Z,39.50
2023-05-22T01:48:31.436Z,36.25
2023-05-22T01:49:34.313Z,37.25
2023-05-22T01:50:35.800Z,36.50
2023-05-22T01:51:40.987Z,42.25
2023-05-22T01:52:44.474Z,40.25
2023-05-22T01:53:48.366Z,37.75
2023-05-22T01:54:52.725Z,37.75
2023-05-22T01:55:57.426Z,39.75
2023-05-22T01:57:00.010Z,35.75
2023-05-22T01:58:04.177Z,36.50
2023-05-22T01:59:08.493Z,38.25
2023-05-22T02:00:11.664Z,39.75
2023-05-22T02:01:13.246Z,38.25
2023-05-22T02:02:18.349Z,38.75
2023-05-22T02:03:20.616Z,41.75
2023-05-22T02:04:23.251Z,36.50
2023-05-22T02:05:24.931Z,40.25
2023-05-22T02:06:27.399Z,35.75
2023-05-22T02:07:28.841Z,43.25
2023-05-22T02:08:31.273Z,41.50
2023-05-22T02:09:32.740Z,40.25
2023-05-22T02:10:35.195Z,39.00
2023-05-22T02:11:36.663Z,40.00
2023-05-22T02:12:39.119Z,36.75
2023-05-22T02:13:40.565Z,37.25
2023-05-22T02:14:43.052Z,34.75
2023-05-22T02:15:45.719Z,36.50
2023-05-22T02:16:48.886Z,41.00
2023-05-22T02:17:53.261Z,36.00
2023-05-22T02:19:03.052Z,39.25
2023-05-22T02:20:05.364Z,38.25
2023-05-22T02:21:08.612Z,42.25
2023-05-22T02:22:13.576Z,36.75
2023-05-22T02:23:16.303Z,36.25
2023-05-22T02:24:17.751Z,35.25
2023-05-22T02:25:20.177Z,34.25
2023-05-22T02:26:21.623Z,39.75
2023-05-22T02:27:24.058Z,37.00
2023-05-22T02:28:25.563Z,37.50
2023-05-22T02:29:28.011Z,36.25
2023-05-22T02:30:29.464Z,35.50
2023-05-22T02:31:31.931Z,35.50
2023-05-22T02:32:33.555Z,36.25
2023-05-22T02:33:37.399Z,33.75
2023-05-22T02:34:38.884Z,40.25
2023-05-22T02:35:41.339Z,36.25
2023-05-22T02:36:42.833Z,39.75
2023-05-22T02:37:45.297Z,35.75
2023-05-22T02:38:46.795Z,38.50
2023-05-22T02:39:49.246Z,37.75
2023-05-22T02:40:51.115Z,33.75
2023-05-22T02:41:53.568Z,35.25
2023-05-22T02:42:55.040Z,36.50
2023-05-22T02:43:57.491Z,36.50
2023-05-22T02:44:58.944Z,41.50
2023-05-22T02:46:01.484Z,33.75
2023-05-22T02:47:03.063Z,35.50
2023-05-22T02:48:08.412Z,36.50
2023-05-22T02:49:11.223Z,37.00
2023-05-22T02:50:14.631Z,34.75
2023-05-22T02:51:16.245Z,38.00
2023-05-22T02:52:19.015Z,37.25
2023-05-22T02:53:20.468Z,44.50
2023-05-22T02:54:22.969Z,39.75
2023-05-22T02:55:24.444Z,39.00
2023-05-22T02:56:28.868Z,36.75
2023-05-22T02:57:30.330Z,34.50
2023-05-22T02:58:32.775Z,42.75
2023-05-22T02:59:36.309Z,41.00
2023-05-22T03:00:38.977Z,39.25
2023-05-22T03:01:40.671Z,43.50
2023-05-22T03:02:43.180Z,42.00
2023-05-22T03:03:44.851Z,38.75
2023-05-22T03:04:48.714Z,38.00
2023-05-22T03:05:53.658Z,44.75
2023-05-22T03:06:56.098Z,43.50
2023-05-22T03:07:58.001Z,39.50
2023-05-22T03:09:00.471Z,44.75
2023-05-22T03:10:01.948Z,35.75
2023-05-22T03:11:04.444Z,41.75
2023-05-22T03:12:06.153Z,39.75
2023-05-22T03:13:08.577Z,34.50
2023-05-22T03:14:10.045Z,43.25
2023-05-22T03:15:12.527Z,32.50
2023-05-22T03:16:14.017Z,34.00
2023-05-22T03:17:16.455Z,42.50
2023-05-22T03:18:17.978Z,37.50
2023-05-22T03:19:20.485Z,35.50
2023-05-22T03:20:23.313Z,35.50
2023-05-22T03:21:25.763Z,32.50
2023-05-22T03:22:27.228Z,33.50
2023-05-22T03:23:29.669Z,39.50
2023-05-22T03:24:32.258Z,35.50
2023-05-22T03:25:34.697Z,33.00
2023-05-22T03:26:36.158Z,37.00
2023-05-22T03:27:39.073Z,35.00
2023-05-22T03:28:40.650Z,34.50
2023-05-22T03:29:43.157Z,34.50
2023-05-22T03:30:44.613Z,38.50
2023-05-22T03:31:47.044Z,36.00
2023-05-22T03:32:48.583Z,41.25
2023-05-22T03:33:51.096Z,40.75
2023-05-22T03:34:52.596Z,40.00
2023-05-22T03:35:56.430Z,38.25
2023-05-22T03:36:58.948Z,45.50
2023-05-22T03:38:00.427Z,41.25
2023-05-22T03:39:02.906Z,45.50
2023-05-22T03:40:04.918Z,47.75
2023-05-22T03:41:07.836Z,38.25
2023-05-22T03:42:10.312Z,41.00
2023-05-22T03:43:11.798Z,40.00
2023-05-22T03:44:14.250Z,40.25
2023-05-22T03:45:16.022Z,43.00
2023-05-22T03:46:18.492Z,41.00
2023-05-22T03:47:19.989Z,40.00
2023-05-22T03:48:22.417Z,43.00
2023-05-22T03:49:23.874Z,39.50
2023-05-22T03:50:26.321Z,40.00
2023-05-22T03:51:29.167Z,38.25
2023-05-22T03:52:31.588Z,40.75
2023-05-22T03:53:33.027Z,40.50
2023-05-22T03:54:35.465Z,36.50
2023-05-22T03:55:36.930Z,41.00
2023-05-22T03:56:39.359Z,43.00
2023-05-22T03:57:40.831Z,37.75
2023-05-22T03:58:43.243Z,41.50
2023-05-22T03:59:44.702Z,45.00
2023-05-22T04:00:47.228Z,48.00
2023-05-22T04:01:48.845Z,44.25
2023-05-22T04:02:51.474Z,48.50
2023-05-22T04:03:52.938Z,47.50
2023-05-22T04:04:55.419Z,47.50
2023-05-22T04:05:57.108Z,43.50
2023-05-22T04:07:02.634Z,42.00
2023-05-22T04:08:04.332Z,40.50
2023-05-22T04:09:06.752Z,42.75
2023-05-22T04:10:08.399Z,48.75
2023-05-22T04:11:11.036Z,40.50
2023-05-22T04:12:12.503Z,42.50
2023-05-22T04:13:15.084Z,39.75
2023-05-22T04:14:16.573Z,39.75
2023-05-22T04:15:18.995Z,48.00
2023-05-22T04:16:20.908Z,42.75
2023-05-22T04:17:23.416Z,45.50
2023-05-22T04:18:24.893Z,40.00
2023-05-22T04:19:28.137Z,46.00
2023-05-22T04:20:29.720Z,52.75
2023-05-22T04:21:34.210Z,51.75
2023-05-22T04:22:38.494Z,56.25
2023-05-22T04:23:43.311Z,46.25
2023-05-22T04:24:48.995Z,54.25
2023-05-22T04:25:51.465Z,53.25
2023-05-22T04:26:53.240Z,54.25
2023-05-22T04:27:55.643Z,51.50
2023-05-22T04:28:58.084Z,48.50
2023-05-22T04:30:02.305Z,43.75
2023-05-22T04:31:06.424Z,54.25
2023-05-22T04:32:10.610Z,42.25
2023-05-22T04:33:13.726Z,46.25
2023-05-22T04:34:15.575Z,50.75
2023-05-22T04:35:18.622Z,42.75
2023-05-22T04:36:22.278Z,49.50
2023-05-22T04:37:24.872Z,48.50
2023-05-22T04:38:27.698Z,46.50
2023-05-22T04:39:30.138Z,44.25
2023-05-22T04:40:33.368Z,50.75
2023-05-22T04:41:35.868Z,47.75
2023-05-22T04:42:37.408Z,48.00
2023-05-22T04:43:40.050Z,50.50
2023-05-22T04:44:41.817Z,46.00
2023-05-22T04:45:44.254Z,44.50
2023-05-22T04:46:45.823Z,48.25
2023-05-22T04:47:48.499Z,43.75
2023-05-22T04:48:50.947Z,42.50
2023-05-22T04:49:53.445Z,48.00
2023-05-22T04:50:54.883Z,48.75
2023-05-22T04:51:57.461Z,47.25
2023-05-22T04:52:59.730Z,47.00
2023-05-22T04:54:03.526Z,49.00
2023-05-22T04:55:06.977Z,48.00
2023-05-22T04:56:09.430Z,46.25
2023-05-22T04:57:10.932Z,52.75
2023-05-22T04:58:13.374Z,44.75
2023-05-22T04:59:16.375Z,48.00
2023-05-22T05:00:19.353Z,51.50
2023-05-22T05:01:20.993Z,52.25
2023-05-22T05:02:23.502Z,54.25
2023-05-22T05:03:25.619Z,58.75
2023-05-22T05:04:28.125Z,52.75
2023-05-22T05:05:29.597Z,54.00
2023-05-22T05:06:32.070Z,57.25
2023-05-22T05:07:36.723Z,52.75
2023-05-22T05:08:39.188Z,47.25
2023-05-22T05:09:42.001Z,49.00
2023-05-22T05:10:44.472Z,56.75
2023-05-22T05:11:46.316Z,55.00
2023-05-22T05:12:48.755Z,47.50
2023-05-22T05:13:50.342Z,43.00
2023-05-22T05:14:52.797Z,47.75
2023-05-22T05:15:54.542Z,56.75
2023-05-22T05:16:58.612Z,59.00
2023-05-22T05:18:00.276Z,53.25
2023-05-22T05:19:03.897Z,50.75
2023-05-22T05:20:07.378Z,48.00
2023-05-22T05:21:09.857Z,55.00
2023-05-22T05:22:11.305Z,52.50
2023-05-22T05:23:13.913Z,40.75
2023-05-22T05:24:15.687Z,49.50
2023-05-22T05:25:19.623Z,50.50
2023-05-22T05:26:21.852Z,54.00
2023-05-22T05:27:24.306Z,50.50
2023-05-22T05:28:26.199Z,53.50
2023-05-22T05:29:28.697Z,46.00
2023-05-22T05:30:31.803Z,48.50
2023-05-22T05:31:34.298Z,45.25
2023-05-22T05:32:36.070Z,41.75
2023-05-22T05:33:38.542Z,43.75
2023-05-22T05:34:40.018Z,43.00
2023-05-22T05:35:43.153Z,46.00
2023-05-22T05:36:44.736Z,44.75
2023-05-22T05:37:47.161Z,42.75
2023-05-22T05:38:48.622Z,44.50
2023-05-22T05:39:51.116Z,39.75
2023-05-22T05:40:53.990Z,48.50
2023-05-22T05:41:56.525Z,48.00
2023-05-22T05:42:58.012Z,45.25
2023-05-22T05:44:01.360Z,43.25
2023-05-22T05:45:02.916Z,49.75
2023-05-22T05:46:06.113Z,48.75
2023-05-22T05:47:07.735Z,43.25
2023-05-22T05:48:10.211Z,39.00
2023-05-22T05:49:11.758Z,43.50
2023-05-22T05:50:15.659Z,46.00
2023-05-22T05:51:17.190Z,45.50
2023-05-22T05:52:21.644Z,45.25
2023-05-22T05:53:23.535Z,47.25
2023-05-22T05:54:27.122Z,47.00
2023-05-22T05:55:28.659Z,38.75
2023-05-22T05:56:32.452Z,45.00
2023-05-22T05:57:33.934Z,39.50
2023-05-22T05:58:36.377Z,44.25
2023-05-22T05:59:39.002Z,44.50
2023-05-22T06:00:42.356Z,45.25
2023-05-22T06:01:45.846Z,43.50
2023-05-22T06:02:50.336Z,41.75
2023-05-22T06:03:53.434Z,40.25
2023-05-22T06:04:56.166Z,42.00
2023-05-22T06:05:58.175Z,40.50
2023-05-22T06:07:01.766Z,41.50
2023-05-22T06:08:04.311Z,41.00
2023-05-22T06:09:06.818Z,39.50
2023-05-22T06:10:10.810Z,37.00
2023-05-22T06:11:12.320Z,40.00
2023-05-22T06:12:16.172Z,39.50
2023-05-22T06:13:18.739Z,39.00
2023-05-22T06:14:20.272Z,46.50
2023-05-22T06:15:22.816Z,44.50
2023-05-22T06:16:24.416Z,42.00
2023-05-22T06:17:27.210Z,44.00
2023-05-22T06:18:29.707Z,37.25
2023-05-22T06:19:31.264Z,43.75
2023-05-22T06:20:33.774Z,43.75
2023-05-22T06:21:36.249Z,44.50
2023-05-22T06:22:37.777Z,42.00
2023-05-22T06:23:40.271Z,43.00
2023-05-22T06:24:41.810Z,48.75
2023-05-22T06:25:44.553Z,46.50
2023-05-22T06:26:47.028Z,38.00
2023-05-22T06:27:49.848Z,45.00
2023-05-22T06:28:52.452Z,41.25
2023-05-22T06:29:54.223Z,45.25
2023-05-22T06:30:57.118Z,49.75
2023-05-22T06:31:58.662Z,43.50
2023-05-22T06:33:01.308Z,48.00
2023-05-22T06:34:02.997Z,46.00
2023-05-22T06:35:05.828Z,47.50
2023-05-22T06:36:08.870Z,42.00
2023-05-22T06:37:11.913Z,41.00
2023-05-22T06:38:13.375Z,46.50
2023-05-22T06:39:16.240Z,44.75
2023-05-22T06:40:18.670Z,44.75
2023-05-22T06:41:20.217Z,47.25
2023-05-22T06:42:22.685Z,48.25
2023-05-22T06:43:25.490Z,41.00
2023-05-22T06:44:27.909Z,42.50
2023-05-22T06:45:30.550Z,46.50
2023-05-22T06:46:32.042Z,41.50
2023-05-22T06:47:34.547Z,43.50
2023-05-22T06:48:36.980Z,40.00
2023-05-22T06:49:39.457Z,42.75
2023-05-22T06:50:41.158Z,41.25
2023-05-22T06:51:43.818Z,42.25
2023-05-22T06:52:45.305Z,40.50
2023-05-22T06:53:47.759Z,41.25
2023-05-22T06:54:49.423Z,43.75
2023-05-22T06:55:52.011Z,36.00
2023-05-22T06:56:53.532Z,36.75
2023-05-22T06:57:56.075Z,35.50
2023-05-22T06:58:59.854Z,39.75
2023-05-22T07:00:02.284Z,40.25
2023-05-22T07:01:04.997Z,38.00
2023-05-22T07:02:07.482Z,33.25
2023-05-22T07:03:08.992Z,37.50
2023-05-22T07:04:13.262Z,40.25
2023-05-22T07:05:15.817Z,37.75
2023-05-22T07:06:18.295Z,32.75
2023-05-22T07:07:20.912Z,39.75
2023-05-22T07:08:22.677Z,37.00
2023-05-22T07:09:25.130Z,38.25
2023-05-22T07:10:27.752Z,32.25
2023-05-22T07:11:30.925Z,36.00
2023-05-22T07:12:32.428Z,38.75
2023-05-22T07:13:35.005Z,41.50
2023-05-22T07:14:37.989Z,38.00
2023-05-22T07:15:40.413Z,34.25
2023-05-22T07:16:41.943Z,36.50
2023-05-22T07:17:44.759Z,33.25
2023-05-22T07:18:46.467Z,37.25
2023-05-22T07:19:49.046Z,34.75
2023-05-22T07:20:50.611Z,35.50
2023-05-22T07:21:53.064Z,33.25
2023-05-22T07:22:55.558Z,34.25
2023-05-22T07:23:57.057Z,38.25
2023-05-22T07:24:59.510Z,38.25
2023-05-22T07:26:02.040Z,33.50
2023-05-22T07:27:04.374Z,37.00
2023-05-22T07:28:09.012Z,34.00
2023-05-22T07:29:11.846Z,36.25
2023-05-22T07:30:15.924Z,33.75
2023-05-22T07:31:18.376Z,32.00
2023-05-22T07:32:21.037Z,30.75
2023-05-22T07:33:22.506Z,36.00
2023-05-22T07:34:31.700Z,30.25
2023-05-22T07:35:34.915Z,29.50
2023-05-22T07:36:37.585Z,29.25
2023-05-22T07:37:40.024Z,30.75
2023-05-22T07:38:41.811Z,30.25
2023-05-22T07:39:46.557Z,31.00
2023-05-22T07:40:48.056Z,31.00
2023-05-22T07:41:51.096Z,28.75
2023-05-22T07:42:52.554Z,34.25
2023-05-22T07:43:54.972Z,30.75
2023-05-22T07:44:57.445Z,32.50
2023-05-22T07:46:01.317Z,33.50
2023-05-22T07:47:03.854Z,24.50
2023-05-22T07:48:06.599Z,31.00
2023-05-22T07:49:08.069Z,32.00
2023-05-22T07:50:10.637Z,32.00
2023-05-22T07:51:13.638Z,28.25
2023-05-22T07:52:16.152Z,29.00
2023-05-22T07:53:18.581Z,34.00
2023-05-22T07:54:24.162Z,31.50
2023-05-22T07:55:26.708Z,34.00
2023-05-22T07:56:28.164Z,29.50
2023-05-22T07:57:30.725Z,34.00
2023-05-22T07:58:34.598Z,32.00
2023-05-22T07:59:37.501Z,32.50
2023-05-22T08:00:39.961Z,31.75
2023-05-22T08:01:43.258Z,31.75
2023-05-22T08:02:45.815Z,33.00
2023-05-22T08:03:48.592Z,34.00
2023-05-22T08:04:50.525Z,32.50
2023-05-22T08:05:53.077Z,26.50
2023-05-22T08:06:54.558Z,32.00
2023-05-22T08:07:57.058Z,33.75
2023-05-22T08:09:00.062Z,32.00
2023-05-22T08:10:02.289Z,35.00
2023-05-22T08:11:05.027Z,32.50
2023-05-22T08:12:08.308Z,34.50
2023-05-22T08:13:10.440Z,32.75
2023-05-22T08:14:12.938Z,33.25
2023-05-22T08:15:14.418Z,33.00
2023-05-22T08:16:16.963Z,33.50
2023-05-22T08:17:20.777Z,28.50
2023-05-22T08:18:23.460Z,31.50
2023-05-22T08:19:25.004Z,32.25
2023-05-22T08:20:27.532Z,29.50
2023-05-22T08:21:29.138Z,30.75
2023-05-22T08:22:32.006Z,31.00
2023-05-22T08:23:36.290Z,27.25
2023-05-22T08:24:37.805Z,31.00
2023-05-22T08:25:40.269Z,30.00
2023-05-22T08:26:43.532Z,32.00
2023-05-22T08:27:46.182Z,31.50
2023-05-22T08:28:48.031Z,32.25
2023-05-22T08:29:50.468Z,32.50
2023-05-22T08:30:51.949Z,32.00
2023-05-22T08:31:56.841Z,27.00
2023-05-22T08:33:00.916Z,30.00
2023-05-22T08:34:03.254Z,30.25
2023-05-22T08:35:06.065Z,33.00
2023-05-22T08:36:08.608Z,28.50
2023-05-22T08:37:10.283Z,31.00
2023-05-22T08:38:12.735Z,30.25
2023-05-22T08:39:16.541Z,28.25
2023-05-22T08:40:19.016Z,32.75
2023-05-22T08:41:21.679Z,28.00
2023-05-22T08:42:24.185Z,28.25
2023-05-22T08:43:25.700Z,25.50
2023-05-22T08:44:28.129Z,30.00
2023-05-22T08:45:34.007Z,30.50
2023-05-22T08:46:38.164Z,27.75
2023-05-22T08:47:40.856Z,26.25
2023-05-22T08:48:44.840Z,30.50
2023-05-22T08:49:47.269Z,28.50
2023-05-22T08:50:50.205Z,30.25
2023-05-22T08:51:52.977Z,30.00
2023-05-22T08:52:57.191Z,35.25
2023-05-22T08:53:59.663Z,29.50
2023-05-22T08:55:02.114Z,26.00
2023-05-22T08:56:04.723Z,29.00
2023-05-22T08:57:06.188Z,31.25
2023-05-22T08:58:08.693Z,32.00
2023-05-22T08:59:11.209Z,26.25
2023-05-22T09:00:13.160Z,33.25
2023-05-22T09:01:15.682Z,33.75
2023-05-22T09:02:17.244Z,32.25
2023-05-22T09:03:21.493Z,32.50
2023-05-22T09:04:28.197Z,34.00
2023-05-22T09:05:31.451Z,28.75
2023-05-22T09:06:32.924Z,31.25
2023-05-22T09:07:35.410Z,28.75
2023-05-22T09:08:37.825Z,30.00
2023-05-22T09:09:40.338Z,26.75
2023-05-22T09:10:41.942Z,30.50
2023-05-22T09:11:44.566Z,32.50
2023-05-22T09:13:03.737Z,31.00
2023-05-22T09:14:09.564Z,28.50
2023-05-22T09:15:11.512Z,28.50
2023-05-22T09:16:14.416Z,34.00
2023-05-22T09:17:16.290Z,32.75
2023-05-22T09:18:19.029Z,32.00
2023-05-22T09:19:21.549Z,30.50
2023-05-22T09:20:24.425Z,33.00
2023-05-22T09:21:30.638Z,31.50
2023-05-22T09:22:36.001Z,33.75
2023-05-22T09:23:38.803Z,34.00
2023-05-22T09:24:42.066Z,32.50
2023-05-22T09:25:44.776Z,32.00
2023-05-22T09:26:48.247Z,29.50
2023-05-22T09:27:49.722Z,32.00
2023-05-22T09:28:52.199Z,34.00
2023-05-22T09:29:56.759Z,33.25
2023-05-22T09:30:58.293Z,29.75
2023-05-22T09:32:01.288Z,29.25
2023-05-22T09:33:04.441Z,31.50
2023-05-22T09:34:08.117Z,31.50
2023-05-22T09:35:09.778Z,31.00
2023-05-22T09:36:13.592Z,33.25
2023-05-22T09:37:15.069Z,31.00
2023-05-22T09:38:17.498Z,33.50
2023-05-22T09:39:18.988Z,32.50
2023-05-22T09:40:21.668Z,29.75
2023-05-22T09:41:24.458Z,30.25
2023-05-22T09:42:27.100Z,26.75
2023-05-22T09:43:28.554Z,29.50
2023-05-22T09:44:31.088Z,30.50
2023-05-22T09:45:33.603Z,29.75
2023-05-22T09:46:41.560Z,31.25
2023-05-22T09:47:46.044Z,31.50
2023-05-22T09:48:52.141Z,32.00
2023-05-22T09:49:53.629Z,33.25
2023-05-22T09:50:56.651Z,31.75
2023-05-22T09:51:59.530Z,30.00
2023-05-22T09:53:02.671Z,31.25
2023-05-22T09:54:06.745Z,29.75
2023-05-22T09:55:12.203Z,36.50
2023-05-22T09:56:14.693Z,31.25
2023-05-22T09:57:18.129Z,33.75
2023-05-22T09:58:20.672Z,32.00
2023-05-22T09:59:22.476Z,31.75
2023-05-22T10:00:25.163Z,29.25
2023-05-22T10:01:27.744Z,33.00
2023-05-22T10:02:29.385Z,34.50
2023-05-22T10:03:31.866Z,31.25
2023-05-22T10:04:33.672Z,35.00
2023-05-22T10:05:36.964Z,34.00
2023-05-22T10:06:39.190Z,34.50
2023-05-22T10:07:43.901Z,33.25
2023-05-22T10:08:49.020Z,31.75
2023-05-22T10:09:52.551Z,31.00
2023-05-22T10:10:54.132Z,36.00
2023-05-22T10:11:56.678Z,31.00
2023-05-22T10:13:01.226Z,29.50
2023-05-22T10:14:02.784Z,29.25
2023-05-22T10:15:07.348Z,31.00
2023-05-22T10:16:09.848Z,29.25
2023-05-22T10:17:12.470Z,33.00
2023-05-22T10:18:15.621Z,35.75
2023-05-22T10:19:17.109Z,27.75
2023-05-22T10:20:21.392Z,33.75
2023-05-22T10:21:24.549Z,34.00
2023-05-22T10:22:26.556Z,32.25
2023-05-22T10:23:30.746Z,30.75
2023-05-22T10:24:32.365Z,30.25
2023-05-22T10:25:34.860Z,32.75
2023-05-22T10:26:37.354Z,29.25
2023-05-22T10:27:38.952Z,29.25
2023-05-22T10:28:42.478Z,35.75
2023-05-22T10:29:45.211Z,34.00
2023-05-22T10:30:48.727Z,31.25
2023-05-22T10:31:51.621Z,33.50
2023-05-22T10:32:56.679Z,30.75
2023-05-22T10:33:59.538Z,33.00
2023-05-22T10:35:03.168Z,33.50
2023-05-22T10:36:06.502Z,29.00
2023-05-22T10:37:18.576Z,34.25
2023-05-22T10:38:27.427Z,33.50
2023-05-22T10:39:35.347Z,29.00
2023-05-22T10:40:37.788Z,32.00
2023-05-22T10:41:40.033Z,32.00
2023-05-22T10:42:42.483Z,31.75
2023-05-22T10:43:44.136Z,30.75
2023-05-22T10:45:01.591Z,32.25
2023-05-22T10:46:09.210Z,30.50
2023-05-22T10:47:13.229Z,35.00
2023-05-22T10:48:15.999Z,39.25
2023-05-22T10:49:21.631Z,34.25
2023-05-22T10:50:24.167Z,30.25
2023-05-22T10:51:26.707Z,32.50
2023-05-22T10:52:29.159Z,30.50
2023-05-22T10:53:32.859Z,32.25
2023-05-22T10:54:43.132Z,33.25
2023-05-22T10:55:46.793Z,29.25
2023-05-22T10:56:51.844Z,31.25
2023-05-22T10:57:55.691Z,29.75
2023-05-22T10:58:59.152Z,31.50
2023-05-22T11:00:07.698Z,29.00
2023-05-22T11:01:12.634Z,35.50
2023-05-22T11:02:21.171Z,30.00
2023-05-22T11:03:23.711Z,29.25
2023-05-22T11:04:26.424Z,32.25
2023-05-22T11:05:34.522Z,29.75
2023-05-22T11:06:37.490Z,31.50
2023-05-22T11:07:40.422Z,26.75
2023-05-22T11:08:42.918Z,34.25
2023-05-22T11:09:48.255Z,29.00
2023-05-22T11:10:53.067Z,32.75
2023-05-22T11:12:17.454Z,28.75
2023-05-22T11:13:19.039Z,30.25
2023-05-22T11:14:21.532Z,32.50
2023-05-22T11:15:31.293Z,31.75
2023-05-22T11:16:34.333Z,31.00
2023-05-22T11:17:41.456Z,28.50
2023-05-22T11:18:44.612Z,33.25
2023-05-22T11:20:05.256Z,34.25
2023-05-22T11:21:10.508Z,30.50
2023-05-22T11:22:13.667Z,31.75
2023-05-22T11:23:16.461Z,32.75
2023-05-22T11:24:32.629Z,30.25
2023-05-22T11:25:37.391Z,30.00
2023-05-22T11:26:42.654Z,32.50
2023-05-22T11:27:47.685Z,29.50
2023-05-22T11:28:49.589Z,30.25
2023-05-22T11:29:53.985Z,32.75
2023-05-22T11:30:56.459Z,32.50
2023-05-22T11:31:58.076Z,30.00
2023-05-22T11:33:01.050Z,30.00
2023-05-22T11:34:02.660Z,32.25
2023-05-22T11:35:05.433Z,29.25
2023-05-22T11:36:07.972Z,33.50
2023-05-22T11:37:09.525Z,35.25
2023-05-22T11:38:11.959Z,30.50
2023-05-22T11:39:15.662Z,29.25
2023-05-22T11:40:18.403Z,31.25
2023-05-22T11:41:22.462Z,33.75
2023-05-22T11:42:24.943Z,33.75
2023-05-22T11:43:29.957Z,30.00
2023-05-22T11:44:32.393Z,28.25
2023-05-22T11:45:37.526Z,31.50
2023-05-22T11:46:40.299Z,32.75
2023-05-22T11:47:44.424Z,32.75
2023-05-22T11:48:47.085Z,33.25
2023-05-22T11:49:49.555Z,31.75
2023-05-22T11:50:51.061Z,32.00
2023-05-22T11:51:53.506Z,31.75
2023-05-22T11:52:56.258Z,30.75
2023-05-22T11:54:01.364Z,33.00
2023-05-22T11:55:05.417Z,31.50
2023-05-22T11:56:08.101Z,31.25
2023-05-22T11:57:11.883Z,33.75
2023-05-22T11:58:13.341Z,27.50
2023-05-22T11:59:16.335Z,36.75
2023-05-22T12:00:18.376Z,38.75
2023-05-22T12:01:20.835Z,38.00
2023-05-22T12:02:22.504Z,36.00
2023-05-22T12:03:25.996Z,34.25
2023-05-22T12:04:28.597Z,33.00
2023-05-22T12:05:31.673Z,33.25
2023-05-22T12:06:34.311Z,32.50
2023-05-22T12:07:36.910Z,37.50
2023-05-22T12:08:39.383Z,30.25
2023-05-22T12:09:41.584Z,33.75
2023-05-22T12:10:47.529Z,30.50
2023-05-22T12:11:50.031Z,31.75
2023-05-22T12:12:53.856Z,35.00
2023-05-22T12:14:01.713Z,34.75
2023-05-22T12:15:06.049Z,36.50
2023-05-22T12:16:18.777Z,35.50
2023-05-22T12:17:20.291Z,39.25
2023-05-22T12:18:22.782Z,36.75
2023-05-22T12:19:24.838Z,41.25
2023-05-22T12:20:30.081Z,34.75
2023-05-22T12:21:31.778Z,34.25
2023-05-22T12:22:34.519Z,39.50
2023-05-22T12:23:36.978Z,44.50
2023-05-22T12:24:40.753Z,41.75
2023-05-22T12:25:43.340Z,48.50
2023-05-22T12:26:50.313Z,45.25
2023-05-22T12:27:54.113Z,45.00
2023-05-22T12:28:56.560Z,49.00
2023-05-22T12:29:59.066Z,49.50
2023-05-22T12:31:01.683Z,48.00
2023-05-22T12:32:03.788Z,47.75
2023-05-22T12:33:06.740Z,48.25
2023-05-22T12:34:09.194Z,53.50
2023-05-22T12:35:14.877Z,52.25
2023-05-22T12:36:17.305Z,53.00
2023-05-22T12:37:19.384Z,53.25
2023-05-22T12:38:22.129Z,51.75
2023-05-22T12:39:24.606Z,52.00
2023-05-22T12:40:26.127Z,54.00
2023-05-22T12:41:28.692Z,54.50
2023-05-22T12:42:31.301Z,56.00
2023-05-22T12:43:34.227Z,55.25
2023-05-22T12:44:36.639Z,55.75
2023-05-22T12:45:40.946Z,53.50
2023-05-22T12:46:43.490Z,47.50
2023-05-22T12:47:45.027Z,36.00
2023-05-22T12:48:47.899Z,24.00
2023-05-22T12:49:49.362Z,22.50
2023-05-22T12:50:51.818Z,25.75
2023-05-22T12:51:54.256Z,20.50
2023-05-22T12:52:56.793Z,23.00
2023-05-22T12:53:58.289Z,20.75
2023-05-22T12:55:00.838Z,20.50
2023-05-22T12:56:04.263Z,20.50
2023-05-22T12:57:06.752Z,21.00
2023-05-22T12:58:08.353Z,18.50
2023-05-22T12:59:12.219Z,21.75
2023-05-22T13:00:15.138Z,22.50
2023-05-22T13:01:16.788Z,25.00
2023-05-22T13:02:19.348Z,22.25
2023-05-22T13:03:22.159Z,20.75
2023-05-22T13:04:23.645Z,26.25
2023-05-22T13:05:26.489Z,21.50
2023-05-22T13:06:30.395Z,25.75
2023-05-22T13:07:32.206Z,21.75
2023-05-22T13:08:34.732Z,15.50
2023-05-22T13:09:36.493Z,18.00
2023-05-22T13:10:38.962Z,16.25
2023-05-22T13:11:40.675Z,17.00
2023-05-22T13:12:44.878Z,16.75
2023-05-22T13:13:47.824Z,19.75
2023-05-22T13:14:50.746Z,19.75
2023-05-22T13:15:53.346Z,16.75
2023-05-22T13:16:54.893Z,18.75
2023-05-22T13:17:57.332Z,18.50
2023-05-22T13:18:58.864Z,19.25
2023-05-22T13:20:01.528Z,17.00
2023-05-22T13:21:04.117Z,20.50
2023-05-22T13:22:07.389Z,21.75
2023-05-22T13:23:09.934Z,18.25
2023-05-22T13:24:11.550Z,20.00
2023-05-22T13:25:14.309Z,18.75
2023-05-22T13:26:16.785Z,16.00
2023-05-22T13:27:18.431Z,18.50
2023-05-22T13:28:20.900Z,17.00
2023-05-22T13:29:23.406Z,19.00
2023-05-22T13:30:26.272Z,19.00
2023-05-22T13:31:28.838Z,21.00